createdAt,value
2022-10-19T00:03:13.649Z,99.10
2022-10-19T00:07:27.285Z,99.00
2022-10-19T00:11:44.258Z,99.00
2022-10-19T00:15:57.891Z,99.10
2022-10-19T00:20:12.694Z,99.00
2022-10-19T00:24:26.363Z,99.00
2022-10-19T00:28:41.826Z,99.10
2022-10-19T00:32:55.536Z,99.10
2022-10-19T00:37:09.257Z,99.10
2022-10-19T00:41:24.672Z,99.10
2022-10-19T00:45:40.273Z,99.00
2022-10-19T00:49:55.097Z,99.00
2022-10-19T00:54:10.203Z,99.10
2022-10-19T00:58:23.890Z,99.10
2022-10-19T01:02:39.211Z,99.10
2022-10-19T01:06:53.624Z,99.10
2022-10-19T01:11:20.403Z,99.20
2022-10-19T01:15:42.895Z,99.20
2022-10-19T01:20:48.854Z,99.10
2022-10-19T01:25:18.551Z,99.10
2022-10-19T01:29:53.936Z,99.10
2022-10-19T01:34:14.630Z,99.30
2022-10-19T01:38:35.334Z,99.60
2022-10-19T01:42:59.810Z,99.80
2022-10-19T01:47:19.516Z,99.90
2022-10-19T01:51:36.119Z,99.90
2022-10-19T01:55:52.912Z,99.90
2022-10-19T02:00:09.341Z,99.80
2022-10-19T02:04:27.588Z,99.70
2022-10-19T02:08:45.590Z,99.60
2022-10-19T02:13:00.631Z,99.60
2022-10-19T02:17:17.932Z,99.60
2022-10-19T02:21:33.568Z,99.60
2022-10-19T02:25:47.452Z,99.60
2022-10-19T02:30:01.340Z,99.60
2022-10-19T02:34:15.367Z,99.60
2022-10-19T02:38:30.597Z,99.70
2022-10-19T02:42:49.935Z,99.60
2022-10-19T02:47:08.481Z,99.50
2022-10-19T02:51:29.588Z,99.40
2022-10-19T02:55:45.274Z,99.30
2022-10-19T02:59:59.502Z,99.20
2022-10-19T03:04:13.215Z,99.20
2022-10-19T03:08:26.887Z,99.30
2022-10-19T03:12:41.980Z,99.40
2022-10-19T03:16:55.682Z,99.80
2022-10-19T03:21:11.527Z,99.90
2022-10-19T03:25:25.293Z,99.80
2022-10-19T03:29:41.535Z,99.70
2022-10-19T03:33:55.285Z,99.60
2022-10-19T03:38:09.033Z,99.50
2022-10-19T03:42:23.829Z,99.50
2022-10-19T03:46:39.565Z,99.70
2022-10-19T03:51:00.449Z,99.70
2022-10-19T03:55:14.121Z,99.80
2022-10-19T03:59:27.801Z,99.80
2022-10-19T04:03:43.943Z,99.70
2022-10-19T04:07:57.559Z,99.60
2022-10-19T04:12:11.235Z,99.40
2022-10-19T04:16:27.087Z,99.20
2022-10-19T04:20:43.821Z,99.40
2022-10-19T04:24:57.519Z,99.00
2022-10-19T04:29:12.508Z,99.00
2022-10-19T04:33:26.358Z,99.00
2022-10-19T04:37:41.400Z,99.00
2022-10-19T04:41:55.560Z,99.00
2022-10-19T04:46:10.605Z,98.90
2022-10-19T04:50:24.367Z,98.90
2022-10-19T04:54:44.279Z,98.90
2022-10-19T04:58:59.007Z,98.90
2022-10-19T05:03:12.704Z,98.90
2022-10-19T05:07:26.567Z,98.90
2022-10-19T05:11:41.746Z,99.00
2022-10-19T05:15:59.416Z,99.00
2022-10-19T05:20:13.233Z,98.90
2022-10-19T05:24:27.017Z,98.90
2022-10-19T05:28:42.103Z,99.10
2022-10-19T05:32:55.760Z,99.30
2022-10-19T05:37:09.634Z,99.60
2022-10-19T05:41:24.123Z,99.90
2022-10-19T05:45:40.468Z,99.90
2022-10-19T05:49:54.208Z,99.90
2022-10-19T05:54:08.426Z,99.90
2022-10-19T05:58:22.478Z,99.90
2022-10-19T06:02:37.635Z,99.90
2022-10-19T06:06:51.270Z,99.90
2022-10-19T06:11:09.653Z,99.90
2022-10-19T06:15:23.391Z,99.90
2022-10-19T06:19:38.631Z,99.90
2022-10-19T06:23:53.055Z,99.80
2022-10-19T06:28:06.764Z,99.90
2022-10-19T06:32:20.610Z,99.90
2022-10-19T06:36:36.431Z,99.90
2022-10-19T06:40:50.147Z,99.90
2022-10-19T06:45:03.872Z,99.90
2022-10-19T06:49:17.600Z,99.90
2022-10-19T06:53:34.307Z,99.90
2022-10-19T06:57:48.003Z,99.90
2022-10-19T07:02:01.693Z,99.90
2022-10-19T07:06:15.978Z,99.90
2022-10-19T07:10:31.062Z,99.90
2022-10-19T07:14:44.764Z,99.90
2022-10-19T07:18:58.435Z,99.90
2022-10-19T07:23:12.116Z,99.90
2022-10-19T07:27:27.142Z,99.90
2022-10-19T07:31:41.522Z,99.90
2022-10-19T07:36:00.710Z,99.90
2022-10-19T07:40:14.790Z,99.90
2022-10-19T07:44:30.049Z,99.90
2022-10-19T07:48:44.509Z,99.90
2022-10-19T07:52:58.343Z,99.90
2022-10-19T07:57:13.004Z,99.90
2022-10-19T08:01:30.227Z,99.90
2022-10-19T08:05:43.958Z,99.90
2022-10-19T08:09:57.718Z,99.90
2022-10-19T08:14:12.856Z,99.90
2022-10-19T08:18:27.952Z,99.90
2022-10-19T08:22:41.905Z,99.90
2022-10-19T08:26:55.628Z,99.90
2022-10-19T08:31:14.590Z,99.90
2022-10-19T08:35:30.810Z,99.90
2022-10-19T08:39:44.628Z,99.90
2022-10-19T08:44:12.540Z,99.90
2022-10-19T08:48:29.837Z,99.90
2022-10-19T08:52:48.881Z,99.90
2022-10-19T08:57:12.212Z,99.90
2022-10-19T09:01:38.250Z,99.90
2022-10-19T09:06:03.900Z,99.90
2022-10-19T09:10:24.894Z,99.90
2022-10-19T09:14:47.647Z,99.90
2022-10-19T09:19:01.434Z,99.90
2022-10-19T09:23:22.973Z,99.90
2022-10-19T09:27:40.533Z,99.90
2022-10-19T09:36:22.229Z,99.90
2022-10-19T09:40:41.328Z,99.90
2022-10-19T09:44:57.075Z,99.90
2022-10-19T09:49:10.884Z,98.80
2022-10-19T09:53:26.669Z,97.40
2022-10-19T09:57:44.002Z,96.10
2022-10-19T10:02:15.763Z,96.00
2022-10-19T10:06:31.375Z,96.20
2022-10-19T10:10:49.175Z,96.50
2022-10-19T10:15:05.182Z,96.20
2022-10-19T10:19:23.184Z,98.10
2022-10-19T10:23:39.295Z,98.30
2022-10-19T10:27:58.998Z,96.00
2022-10-19T10:32:16.251Z,94.70
2022-10-19T10:36:32.954Z,94.30
2022-10-19T10:40:52.634Z,93.90
2022-10-19T10:45:17.475Z,93.90
2022-10-19T10:49:35.168Z,94.10
2022-10-19T10:53:50.376Z,94.80
2022-10-19T10:58:14.202Z,95.40
2022-10-19T11:02:36.721Z,95.60
2022-10-19T11:07:05.976Z,95.50
2022-10-19T11:11:25.051Z,95.80
2022-10-19T11:15:45.717Z,95.90
2022-10-19T11:20:00.152Z,95.50
2022-10-19T11:24:24.118Z,95.50
2022-10-19T11:28:51.026Z,95.00
2022-10-19T11:33:11.372Z,94.90
2022-10-19T11:37:31.519Z,95.50
2022-10-19T11:41:51.075Z,94.90
2022-10-19T11:46:17.441Z,94.50
2022-10-19T11:50:37.397Z,94.80
2022-10-19T11:55:03.523Z,94.60
2022-10-19T11:59:24.912Z,94.30
2022-10-19T12:04:02.545Z,94.20
2022-10-19T12:08:31.625Z,93.50
2022-10-19T12:12:48.805Z,93.70
2022-10-19T12:17:08.672Z,93.20
2022-10-19T12:21:29.358Z,92.20
2022-10-19T12:25:46.205Z,89.30
2022-10-19T12:30:06.881Z,89.80
2022-10-19T12:34:31.319Z,90.30
2022-10-19T12:39:00.608Z,90.70
2022-10-19T12:43:20.928Z,86.80
2022-10-19T12:47:34.877Z,89.70
2022-10-19T12:51:48.851Z,88.30
2022-10-19T12:56:07.256Z,86.80
2022-10-19T13:00:23.888Z,87.40
2022-10-19T13:04:38.202Z,87.20
2022-10-19T13:08:58.619Z,89.10
2022-10-19T13:13:53.296Z,88.70
2022-10-19T13:18:14.219Z,89.00
2022-10-19T13:22:29.388Z,88.70
2022-10-19T13:26:45.144Z,86.50
2022-10-19T13:31:06.185Z,84.60
2022-10-19T13:35:33.811Z,85.10
2022-10-19T13:39:48.744Z,86.80
2022-10-19T13:44:04.729Z,87.80
2022-10-19T13:48:25.577Z,86.60
2022-10-19T13:53:18.228Z,88.30
2022-10-19T13:57:50.033Z,87.90
2022-10-19T14:02:57.583Z,89.30
2022-10-19T14:07:16.811Z,89.20
2022-10-19T14:11:35.174Z,89.80
2022-10-19T14:15:53.022Z,90.00
2022-10-19T14:20:27.858Z,89.90
2022-10-19T14:24:43.337Z,89.00
2022-10-19T14:28:58.988Z,89.90
2022-10-19T14:33:17.844Z,89.30
2022-10-19T14:37:32.008Z,87.50
2022-10-19T14:41:47.262Z,87.20
2022-10-19T14:46:09.908Z,86.90
2022-10-19T14:50:29.758Z,87.20
2022-10-19T14:54:46.152Z,87.50
2022-10-19T14:59:05.920Z,86.70
2022-10-19T15:03:24.071Z,84.60
2022-10-19T15:07:40.017Z,83.90
2022-10-19T15:11:56.428Z,82.50
2022-10-19T15:16:43.121Z,80.60
2022-10-19T15:21:46.580Z,78.50
2022-10-19T15:26:17.586Z,77.50
2022-10-19T15:30:33.580Z,76.50
2022-10-19T15:34:47.614Z,77.70
2022-10-19T15:39:24.470Z,78.00
2022-10-19T15:43:46.047Z,79.00
2022-10-19T15:48:28.638Z,78.60
2022-10-19T15:57:34.179Z,78.40
2022-10-19T16:01:53.665Z,80.20
2022-10-19T16:06:10.364Z,80.90
2022-10-19T16:10:25.964Z,80.50
2022-10-19T16:14:41.282Z,81.20
2022-10-19T16:18:55.695Z,78.10
2022-10-19T16:23:09.486Z,78.10
2022-10-19T16:27:23.315Z,77.40
2022-10-19T16:31:38.899Z,77.90
2022-10-19T16:35:52.580Z,77.80
2022-10-19T16:40:07.457Z,78.20
2022-10-19T16:44:21.610Z,79.50
2022-10-19T16:48:36.997Z,79.40
2022-10-19T16:53:05.558Z,78.30
2022-10-19T16:57:19.579Z,77.70
2022-10-19T17:01:35.605Z,78.70
2022-10-19T17:05:50.703Z,80.40
2022-10-19T17:10:04.613Z,81.90
2022-10-19T17:14:18.560Z,83.60
2022-10-19T17:18:32.319Z,84.90
2022-10-19T17:22:47.379Z,86.90
2022-10-19T17:27:03.663Z,87.50
2022-10-19T17:31:17.334Z,88.70
2022-10-19T17:35:44.571Z,89.70
2022-10-19T17:39:59.593Z,90.10
2022-10-19T17:44:13.713Z,90.60
2022-10-19T17:48:27.567Z,91.10
2022-10-19T17:52:41.220Z,91.30
2022-10-19T17:56:56.285Z,91.70
2022-10-19T18:01:11.168Z,91.80
2022-10-19T18:05:25.202Z,91.80
2022-10-19T18:09:39.436Z,91.90
2022-10-19T18:13:56.728Z,91.90
2022-10-19T18:18:10.503Z,91.90
2022-10-19T18:22:24.229Z,92.00
2022-10-19T18:26:38.295Z,92.10
2022-10-19T18:30:53.389Z,92.30
2022-10-19T18:35:08.906Z,92.40
2022-10-19T18:39:23.190Z,92.50
2022-10-19T18:43:36.873Z,92.50
2022-10-19T18:47:51.946Z,93.00
2022-10-19T18:52:05.758Z,93.00
2022-10-19T18:56:20.961Z,93.00
2022-10-19T19:00:34.702Z,93.10
2022-10-19T19:04:49.735Z,93.20
2022-10-19T19:09:05.508Z,93.40
2022-10-19T19:13:19.235Z,93.50
2022-10-19T19:17:33.053Z,93.80
2022-10-19T19:21:49.896Z,93.50
2022-10-19T19:26:04.652Z,93.50
2022-10-19T19:30:18.443Z,93.60
2022-10-19T19:34:32.204Z,93.70
2022-10-19T19:38:48.985Z,94.20
2022-10-19T19:43:02.713Z,94.00
2022-10-19T19:47:19.408Z,94.20
2022-10-19T19:51:33.747Z,94.40
2022-10-19T19:55:50.208Z,94.60
2022-10-19T20:00:06.229Z,94.70
2022-10-19T20:04:25.214Z,94.80
2022-10-19T20:08:39.410Z,94.90
2022-10-19T20:12:54.547Z,95.00
2022-10-19T20:17:08.300Z,95.10
2022-10-19T20:21:25.287Z,95.10
2022-10-19T20:25:39.061Z,95.40
2022-10-19T20:29:58.450Z,95.60
2022-10-19T20:34:14.249Z,95.70
2022-10-19T20:38:28.237Z,95.80
2022-10-19T20:42:42.441Z,95.90
2022-10-19T20:46:57.521Z,96.00
2022-10-19T20:51:13.672Z,96.00
2022-10-19T20:55:27.379Z,96.10
2022-10-19T20:59:41.291Z,96.10
2022-10-19T21:03:58.711Z,96.00
2022-10-19T21:08:15.356Z,96.00
2022-10-19T21:12:29.234Z,96.00
2022-10-19T21:16:43.763Z,96.10
2022-10-19T21:20:58.802Z,96.10
2022-10-19T21:25:12.497Z,96.10
2022-10-19T21:29:29.173Z,96.20
2022-10-19T21:33:43.224Z,96.30
2022-10-19T21:37:58.396Z,96.40
2022-10-19T21:42:12.193Z,96.50
2022-10-19T21:46:26.732Z,96.60
2022-10-19T21:50:40.550Z,96.60
2022-10-19T21:54:56.361Z,96.70
2022-10-19T21:59:10.525Z,96.80
2022-10-19T22:03:24.416Z,96.70
2022-10-19T22:07:38.249Z,96.70
2022-10-19T22:11:53.695Z,96.80
2022-10-19T22:16:10.036Z,96.80
2022-10-19T22:20:24.193Z,96.70
2022-10-19T22:24:38.120Z,96.70
2022-10-19T22:28:54.557Z,96.70
2022-10-19T22:33:08.573Z,96.70
2022-10-19T22:37:22.222Z,96.70
2022-10-19T22:41:36.158Z,96.60
2022-10-19T22:45:52.925Z,96.50
2022-10-19T22:50:09.591Z,96.50
2022-10-19T22:54:25.656Z,96.30
2022-10-19T22:58:39.588Z,96.30
2022-10-19T23:02:54.714Z,96.30
2022-10-19T23:07:08.650Z,96.30
2022-10-19T23:11:22.451Z,96.30
2022-10-19T23:15:39.293Z,96.40
2022-10-19T23:19:56.718Z,96.30
2022-10-19T23:24:10.469Z,96.40
2022-10-19T23:28:24.154Z,96.50
2022-10-19T23:32:37.812Z,96.50
2022-10-19T23:36:52.902Z,96.40
2022-10-19T23:41:06.872Z,96.70
2022-10-19T23:45:20.701Z,96.20
2022-10-19T23:49:34.619Z,96.00
2022-10-19T23:53:51.439Z,95.80
2022-10-19T23:58:05.330Z,95.80
